Time;durP1;ratioP1;P1;durP2;ratioP2;P2;SDS_P1;SDS_P2;PMS_P1;PMS_P2;Temp;Humidity;BMP_temperature;BMP_pressure;BME280_temperature;BME280_humidity;BME280_pressure;Samples;Min_cycle;Max_cycle;Signal;HPM_P1;HPM_P2
2021/12/09 00:01:52;;;;;;;0.67;0.60;;;;;;;4.70;100.00;95127.22;5132993;27;20431;-52
2021/12/09 00:04:28;;;;;;;1.00;1.00;;;;;;;4.72;100.00;95106.75;5133143;27;20448;-52
2021/12/09 00:06:59;;;;;;;0.43;0.40;;;;;;;4.49;100.00;95059.66;5132980;27;20853;-53
2021/12/09 00:09:27;;;;;;;0.30;0.20;;;;;;;4.74;100.00;95119.63;5132824;27;20470;-52
2021/12/09 00:11:56;;;;;;;0.53;0.50;;;;;;;4.45;100.00;95137.28;5133098;27;20427;-52
2021/12/09 00:14:27;;;;;;;0.30;0.20;;;;;;;4.72;100.00;95119.88;5132541;27;20478;-52
2021/12/09 00:16:59;;;;;;;0.50;0.50;;;;;;;4.66;100.00;95126.06;5132626;27;20426;-52
2021/12/09 00:19:29;;;;;;;0.40;0.30;;;;;;;4.60;100.00;95126.22;5133086;27;20441;-52
2021/12/09 00:21:58;;;;;;;0.70;0.70;;;;;;;4.88;100.00;95134.06;5131950;27;20430;-53
2021/12/09 00:24:27;;;;;;;0.30;0.30;;;;;;;4.95;100.00;95134.69;5132996;27;20453;-52
2021/12/09 00:26:56;;;;;;;0.40;0.30;;;;;;;5.07;100.00;95141.47;5132847;28;20483;-53
2021/12/09 00:29:25;;;;;;;2.67;0.40;;;;;;;5.07;100.00;95128.34;5132610;28;20470;-53
2021/12/09 00:31:53;;;;;;;0.83;0.83;;;;;;;4.91;100.00;95137.00;5132010;28;20463;-53
2021/12/09 00:34:30;;;;;;;0.77;0.77;;;;;;;4.95;100.00;95139.94;5132482;28;20498;-53
2021/12/09 00:37:10;;;;;;;0.80;0.80;;;;;;;4.71;100.00;95138.47;5132572;28;20505;-53
2021/12/09 00:39:40;;;;;;;1.93;1.83;;;;;;;4.43;100.00;95118.31;5132621;27;20979;-53
2021/12/09 00:42:10;;;;;;;0.30;0.20;;;;;;;4.22;100.00;95139.97;5132907;28;20493;-53
2021/12/09 00:44:38;;;;;;;0.30;0.30;;;;;;;4.46;100.00;95120.47;5132366;27;20549;-53
2021/12/09 00:47:07;;;;;;;0.50;0.50;;;;;;;4.73;100.00;95134.59;5132475;28;20460;-53
2021/12/09 00:49:36;;;;;;;0.30;0.20;;;;;;;4.93;100.00;95142.03;5132802;27;20846;-53
2021/12/09 00:52:06;;;;;;;0.83;0.80;;;;;;;4.69;100.00;95148.44;5132392;28;20476;-53
2021/12/09 00:54:35;;;;;;;2.43;1.33;;;;;;;3.52;100.00;95065.97;5132675;28;20462;-53
2021/12/09 00:57:04;;;;;;;0.30;0.20;;;;;;;4.52;100.00;95142.34;5132375;28;20439;-53
2021/12/09 00:59:32;;;;;;;0.50;0.50;;;;;;;4.76;100.00;95144.63;5132499;28;20453;-53
2021/12/09 01:02:01;;;;;;;0.30;0.20;;;;;;;4.79;100.00;95144.16;5131822;27;20435;-53
2021/12/09 01:04:29;;;;;;;0.40;0.30;;;;;;;4.92;100.00;95141.22;5132222;28;20431;-53
2021/12/09 01:06:57;;;;;;;0.30;0.20;;;;;;;4.83;100.00;95147.88;5132037;28;20434;-53
2021/12/09 01:09:27;;;;;;;0.37;0.30;;;;;;;4.88;100.00;95140.09;5132311;28;20555;-53
2021/12/09 01:11:56;;;;;;;0.37;0.30;;;;;;;5.04;100.00;95139.31;5131876;28;21074;-53
2021/12/09 01:14:24;;;;;;;0.30;0.20;;;;;;;4.89;100.00;95148.78;5131803;28;20851;-53
2021/12/09 01:16:53;;;;;;;0.30;0.20;;;;;;;4.94;100.00;95140.97;5132114;27;20491;-53
2021/12/09 01:19:21;;;;;;;0.30;0.20;;;;;;;4.54;100.00;95085.97;5132329;28;20427;-53
2021/12/09 01:21:50;;;;;;;0.40;0.30;;;;;;;4.85;100.00;95137.97;5131822;27;20483;-53
2021/12/09 01:24:18;;;;;;;0.40;0.30;;;;;;;4.95;100.00;95134.69;5132192;28;20442;-53
2021/12/09 01:26:49;;;;;;;0.40;0.40;;;;;;;4.77;100.00;95140.16;5131766;28;20477;-53
2021/12/09 01:29:27;;;;;;;0.40;0.30;;;;;;;4.48;100.00;95134.94;5131996;28;20523;-53
2021/12/09 01:32:00;;;;;;;0.93;0.40;;;;;;;3.36;100.00;95143.47;5130602;28;20910;-53
2021/12/09 01:34:29;;;;;;;0.30;0.20;;;;;;;2.87;100.00;95143.88;5134059;27;21047;-53
2021/12/09 01:36:57;;;;;;;1.00;1.00;;;;;;;2.87;100.00;95133.41;5135782;27;20422;-53
2021/12/09 01:39:27;;;;;;;0.30;0.20;;;;;;;2.78;100.00;95129.53;5135735;27;20471;-53
2021/12/09 01:41:57;;;;;;;0.77;0.77;;;;;;;3.42;100.00;95126.81;5136022;27;20501;-53
2021/12/09 01:44:27;;;;;;;0.30;0.20;;;;;;;3.75;100.00;95121.75;5135566;27;20910;-53
2021/12/09 01:46:57;;;;;;;0.40;0.40;;;;;;;3.27;100.00;95070.66;5135904;27;20867;-53
2021/12/09 01:49:26;;;;;;;0.93;0.93;;;;;;;3.59;100.00;95121.69;5135858;27;20422;-53
2021/12/09 01:51:55;;;;;;;0.37;0.20;;;;;;;3.18;100.00;95068.44;5135438;27;20513;-53
2021/12/09 01:54:24;;;;;;;0.63;0.63;;;;;;;3.26;100.00;95035.84;5135036;27;20462;-53
2021/12/09 01:56:53;;;;;;;0.60;0.60;;;;;;;4.20;100.00;95121.06;5135654;27;20423;-53
2021/12/09 01:59:23;;;;;;;0.30;0.20;;;;;;;4.27;100.00;95116.47;5135170;27;20475;-53
2021/12/09 02:01:52;;;;;;;0.83;0.83;;;;;;;4.19;100.00;95116.84;5135016;27;20419;-53
2021/12/09 02:04:22;;;;;;;0.30;0.20;;;;;;;4.35;100.00;95123.97;5135043;27;20419;-53
2021/12/09 02:06:51;;;;;;;0.30;0.20;;;;;;;3.64;100.00;95122.56;5135402;27;20460;-52
2021/12/09 02:09:20;;;;;;;0.43;0.43;;;;;;;3.97;100.00;95123.75;5135292;27;20451;-52
2021/12/09 02:11:49;;;;;;;0.43;0.43;;;;;;;4.17;100.00;95129.41;5135526;27;20419;-52
2021/12/09 02:14:17;;;;;;;0.67;0.67;;;;;;;4.08;100.00;95126.31;5134940;27;21025;-52
2021/12/09 02:16:47;;;;;;;0.60;0.60;;;;;;;4.09;100.00;95121.88;5135116;27;20451;-52
2021/12/09 02:19:15;;;;;;;0.50;0.40;;;;;;;3.92;100.00;95079.91;5134961;27;20451;-53
2021/12/09 02:21:45;;;;;;;0.50;0.50;;;;;;;4.14;100.00;95116.75;5134948;27;20480;-53
2021/12/09 02:24:16;;;;;;;0.40;0.40;;;;;;;4.10;100.00;95140.00;5134936;27;20411;-54
2021/12/09 02:26:49;;;;;;;0.50;0.40;;;;;;;3.95;100.00;95144.94;5135201;27;20489;-52
2021/12/09 02:29:18;;;;;;;0.50;0.50;;;;;;;4.03;100.00;95133.28;5135097;27;20431;-52
2021/12/09 02:31:47;;;;;;;0.30;0.20;;;;;;;4.06;100.00;95140.72;5134473;27;20465;-52
2021/12/09 02:34:16;;;;;;;0.40;0.40;;;;;;;3.33;100.00;95143.09;5133583;27;20470;-52
2021/12/09 02:36:45;;;;;;;0.30;0.20;;;;;;;3.70;100.00;95132.13;5134352;27;20455;-52
2021/12/09 02:39:15;;;;;;;0.40;0.40;;;;;;;4.09;100.00;95135.00;5135039;27;20458;-53
2021/12/09 02:41:45;;;;;;;0.47;0.47;;;;;;;4.01;100.00;95141.41;5134663;27;20411;-53
2021/12/09 02:44:17;;;;;;;0.30;0.20;;;;;;;4.13;100.00;95136.13;5134344;27;20978;-53
2021/12/09 02:46:48;;;;;;;0.30;0.20;;;;;;;4.29;100.00;95130.13;5133840;27;20462;-53
2021/12/09 02:49:19;;;;;;;0.30;0.20;;;;;;;4.43;100.00;95144.56;5134486;27;20430;-53
2021/12/09 02:51:52;;;;;;;0.40;0.30;;;;;;;4.20;100.00;95129.69;5134382;27;20479;-52
2021/12/09 02:54:22;;;;;;;0.30;0.20;;;;;;;4.27;100.00;95137.44;5134572;27;20458;-52
2021/12/09 02:56:53;;;;;;;0.30;0.30;;;;;;;4.15;100.00;95136.69;5133850;27;20431;-52
2021/12/09 02:59:21;;;;;;;0.30;0.20;;;;;;;4.08;100.00;95131.56;5134127;27;20466;-52
2021/12/09 03:01:57;;;;;;;0.40;0.40;;;;;;;4.18;100.00;95137.00;5134203;27;20480;-52
2021/12/09 03:04:28;;;;;;;0.30;0.20;;;;;;;4.13;100.00;95139.53;5134157;27;20425;-52
2021/12/09 03:06:58;;;;;;;0.30;0.20;;;;;;;3.80;100.00;95142.00;5134077;27;20474;-52
2021/12/09 03:09:27;;;;;;;0.30;0.20;;;;;;;4.02;100.00;95139.59;5134003;27;20454;-52
2021/12/09 03:11:58;;;;;;;0.90;0.50;;;;;;;4.11;100.00;95132.94;5134034;27;20423;-52
2021/12/09 03:14:27;;;;;;;1.03;1.00;;;;;;;4.17;100.00;95145.13;5133416;27;20473;-54
2021/12/09 03:16:55;;;;;;;0.30;0.20;;;;;;;4.05;100.00;95139.91;5133279;27;20513;-53
2021/12/09 03:19:24;;;;;;;1.03;1.03;;;;;;;4.11;100.00;95131.13;5133808;27;20927;-52
2021/12/09 03:21:54;;;;;;;0.30;0.20;;;;;;;4.25;100.00;95142.13;5133869;27;20475;-52
2021/12/09 03:24:24;;;;;;;0.67;0.67;;;;;;;3.49;100.00;95143.19;5133759;27;20517;-52
2021/12/09 03:26:56;;;;;;;0.40;0.30;;;;;;;2.89;100.00;95018.78;5133671;27;20530;-53
2021/12/09 03:29:27;;;;;;;0.40;0.30;;;;;;;3.71;100.00;95138.97;5133623;27;20467;-52
2021/12/09 03:31:59;;;;;;;4.47;0.50;;;;;;;3.60;100.00;95142.41;5133590;27;20462;-53
2021/12/09 03:34:31;;;;;;;0.40;0.30;;;;;;;3.43;100.00;95133.66;5133848;27;20422;-53
2021/12/09 03:37:01;;;;;;;0.30;0.20;;;;;;;3.00;100.00;95149.69;5133530;27;20426;-53
2021/12/09 03:39:34;;;;;;;0.73;0.67;;;;;;;2.99;100.00;95116.69;5133788;27;20506;-53
2021/12/09 03:42:05;;;;;;;0.60;0.60;;;;;;;3.17;100.00;95157.66;5133220;27;20486;-53
2021/12/09 03:44:34;;;;;;;0.60;0.60;;;;;;;2.62;100.00;95156.31;5133042;27;20904;-53
2021/12/09 03:47:06;;;;;;;0.33;0.30;;;;;;;2.44;100.00;95165.84;5133384;27;20448;-52
2021/12/09 03:49:35;;;;;;;0.30;0.20;;;;;;;1.93;100.00;95168.09;5133558;27;20430;-53
2021/12/09 03:52:05;;;;;;;0.40;0.30;;;;;;;1.90;100.00;95173.75;5133257;27;20431;-53
2021/12/09 03:54:35;;;;;;;0.37;0.27;;;;;;;1.27;100.00;95111.34;5133616;27;20942;-53
2021/12/09 03:57:05;;;;;;;0.30;0.20;;;;;;;2.05;100.00;95176.78;5133151;27;20524;-53
2021/12/09 03:59:34;;;;;;;0.40;0.30;;;;;;;2.32;100.00;95165.00;5133513;27;20517;-53
2021/12/09 04:02:03;;;;;;;1.53;1.40;;;;;;;2.22;100.00;95183.03;5133203;27;20510;-53
2021/12/09 04:04:32;;;;;;;0.30;0.20;;;;;;;2.14;100.00;95190.38;5132993;27;20469;-53
2021/12/09 04:07:01;;;;;;;0.30;0.20;;;;;;;2.56;100.00;95192.81;5133379;27;20509;-53
2021/12/09 04:09:29;;;;;;;0.30;0.20;;;;;;;2.61;100.00;95186.91;5133072;27;20514;-53
2021/12/09 04:11:59;;;;;;;0.30;0.30;;;;;;;2.94;100.00;95196.91;5133112;27;20454;-53
2021/12/09 04:14:27;;;;;;;0.40;0.40;;;;;;;2.72;100.00;95201.06;5133087;27;20458;-53
2021/12/09 04:16:56;;;;;;;0.90;0.90;;;;;;;2.77;100.00;95194.13;5132438;27;20545;-53
2021/12/09 04:19:25;;;;;;;0.43;0.40;;;;;;;2.77;100.00;95191.53;5132791;27;20434;-53
2021/12/09 04:21:53;;;;;;;0.30;0.30;;;;;;;2.75;100.00;95203.25;5132955;27;20415;-52
2021/12/09 04:24:22;;;;;;;0.73;0.73;;;;;;;2.67;100.00;95217.44;5133100;27;20848;-54
2021/12/09 04:26:53;;;;;;;0.30;0.30;;;;;;;2.76;100.00;95215.31;5132783;27;20442;-53
2021/12/09 04:29:23;;;;;;;1.87;0.63;;;;;;;2.71;100.00;95215.97;5132720;28;20426;-53
2021/12/09 04:31:52;;;;;;;0.33;0.23;;;;;;;2.84;100.00;95194.03;5132860;28;21042;-53
2021/12/09 04:34:21;;;;;;;0.30;0.20;;;;;;;2.45;100.00;95205.88;5133475;27;20440;-53
2021/12/09 04:36:50;;;;;;;1.70;1.13;;;;;;;2.37;100.00;95193.91;5132686;27;20466;-52
2021/12/09 04:39:19;;;;;;;1.03;1.03;;;;;;;2.72;100.00;95214.94;5132629;27;20981;-53
2021/12/09 04:41:47;;;;;;;0.30;0.23;;;;;;;2.89;100.00;95178.44;5132901;28;20502;-53
2021/12/09 04:44:15;;;;;;;0.43;0.43;;;;;;;2.83;100.00;95202.94;5132677;28;20923;-53
2021/12/09 04:46:45;;;;;;;0.73;0.73;;;;;;;2.80;100.00;95208.59;5132610;28;21011;-52
2021/12/09 04:49:14;;;;;;;0.33;0.30;;;;;;;2.73;100.00;95218.38;5132703;27;20450;-53
2021/12/09 04:51:43;;;;;;;0.73;0.73;;;;;;;2.82;100.00;95212.59;5132416;28;20427;-52
2021/12/09 04:54:11;;;;;;;2.40;2.03;;;;;;;2.79;100.00;95209.59;5132456;28;20434;-53
2021/12/09 04:56:40;;;;;;;5.07;1.53;;;;;;;2.70;100.00;95210.97;5132613;28;20498;-52
2021/12/09 04:59:10;;;;;;;0.40;0.30;;;;;;;2.50;100.00;95206.00;5132556;28;20930;-52
2021/12/09 05:01:38;;;;;;;0.73;0.70;;;;;;;2.54;100.00;95215.78;5132644;28;20514;-52
2021/12/09 05:04:08;;;;;;;1.60;1.17;;;;;;;2.80;100.00;95221.69;5132621;27;20984;-53
2021/12/09 05:06:37;;;;;;;2.60;2.40;;;;;;;2.80;100.00;95214.63;5132551;28;20427;-52
2021/12/09 05:09:10;;;;;;;0.30;0.30;;;;;;;2.21;100.00;95214.59;5134383;27;20977;-53
2021/12/09 05:11:49;;;;;;;2.07;1.97;;;;;;;2.04;100.00;95214.41;5136587;27;20460;-53
2021/12/09 05:14:19;;;;;;;0.30;0.30;;;;;;;2.09;100.00;95235.47;5136413;27;20474;-52
2021/12/09 05:16:50;;;;;;;3.13;1.53;;;;;;;1.81;100.00;95237.78;5136258;27;20886;-53
2021/12/09 05:19:21;;;;;;;0.97;0.97;;;;;;;1.88;100.00;95235.88;5135896;27;20994;-53
2021/12/09 05:21:52;;;;;;;1.43;1.40;;;;;;;2.40;100.00;95235.28;5136462;27;20506;-52
2021/12/09 05:24:21;;;;;;;9.83;2.40;;;;;;;2.19;100.00;95234.94;5135232;27;20617;-52
2021/12/09 05:26:52;;;;;;;1.53;1.53;;;;;;;2.60;100.00;95229.00;5135934;27;20921;-53
2021/12/09 05:29:28;;;;;;;1.77;1.77;;;;;;;2.50;100.00;95235.56;5136269;27;20433;-52
2021/12/09 05:32:10;;;;;;;0.30;0.30;;;;;;;2.27;100.00;95238.06;5135499;27;20524;-53
2021/12/09 05:37:31;;;;;;;5.33;2.20;;;;;;;2.64;100.00;95251.88;5135387;27;20970;-53
2021/12/09 05:40:03;;;;;;;2.40;1.53;;;;;;;2.10;100.00;95265.81;5135500;27;20423;-53
2021/12/09 05:42:32;;;;;;;0.60;0.60;;;;;;;1.92;100.00;95261.38;5135087;27;20810;-52
2021/12/09 05:45:00;;;;;;;3.37;3.17;;;;;;;2.05;100.00;95263.03;5133117;27;20462;-53
2021/12/09 05:47:33;;;;;;;0.50;0.50;;;;;;;1.89;100.00;95235.69;5133154;27;20437;-53
2021/12/09 05:50:09;;;;;;;2.30;2.20;;;;;;;2.29;100.00;95262.19;5133321;27;20442;-53
2021/12/09 05:52:38;;;;;;;0.90;0.90;;;;;;;2.46;100.00;95237.03;5133626;27;20433;-53
2021/12/09 05:55:10;;;;;;;7.07;3.70;;;;;;;1.97;100.00;95225.97;5134576;27;20442;-53
2021/12/09 05:57:39;;;;;;;0.40;0.40;;;;;;;1.71;100.00;95190.47;5134859;27;20462;-53
2021/12/09 06:00:09;;;;;;;0.53;0.50;;;;;;;2.41;100.00;95246.53;5135362;27;20855;-53
2021/12/09 06:02:38;;;;;;;3.60;3.40;;;;;;;2.30;100.00;95249.91;5135213;27;20969;-53
2021/12/09 06:05:08;;;;;;;0.40;0.30;;;;;;;2.69;100.00;95259.06;5135637;27;20441;-53
2021/12/09 06:07:38;;;;;;;2.93;2.30;;;;;;;2.58;100.00;95257.22;5135184;27;20426;-53
2021/12/09 06:10:08;;;;;;;5.57;1.20;;;;;;;2.87;100.00;95254.59;5135227;27;20923;-52
2021/12/09 06:12:37;;;;;;;1.23;1.20;;;;;;;3.18;100.00;95251.72;5135406;27;20515;-52
2021/12/09 06:15:07;;;;;;;0.30;0.30;;;;;;;2.82;100.00;95261.50;5135237;27;20525;-52
2021/12/09 06:17:36;;;;;;;1.00;1.00;;;;;;;2.84;100.00;95273.34;5135100;27;20870;-51
2021/12/09 06:20:05;;;;;;;1.07;1.07;;;;;;;2.56;100.00;95267.88;5133822;27;20410;-52
2021/12/09 06:22:35;;;;;;;0.30;0.30;;;;;;;2.61;100.00;95270.63;5135271;27;20463;-53
2021/12/09 06:25:05;;;;;;;2.07;1.87;;;;;;;2.49;100.00;95270.59;5134746;27;20458;-52
2021/12/09 06:27:33;;;;;;;1.00;1.00;;;;;;;2.18;100.00;95289.03;5134964;27;20987;-52
2021/12/09 06:30:02;;;;;;;0.30;0.20;;;;;;;2.61;100.00;95281.09;5134734;27;20903;-52
2021/12/09 06:32:30;;;;;;;0.30;0.20;;;;;;;2.24;100.00;95282.16;5134628;27;20923;-52
2021/12/09 06:34:59;;;;;;;0.80;0.80;;;;;;;2.64;100.00;95279.88;5135042;27;20418;-52
2021/12/09 06:37:27;;;;;;;0.50;0.50;;;;;;;2.84;100.00;95288.25;5134768;27;20574;-52
2021/12/09 06:39:57;;;;;;;0.40;0.30;;;;;;;3.23;100.00;95282.47;5135031;27;20511;-52
2021/12/09 06:42:25;;;;;;;0.30;0.20;;;;;;;2.93;100.00;95284.31;5134892;27;20435;-52
2021/12/09 06:44:54;;;;;;;0.97;0.97;;;;;;;3.38;100.00;95282.84;5134462;27;20518;-52
2021/12/09 06:47:22;;;;;;;1.60;1.50;;;;;;;3.80;100.00;95249.50;5134512;27;20466;-52
2021/12/09 06:49:51;;;;;;;0.30;0.20;;;;;;;4.03;100.00;95265.22;5134615;27;20479;-53
2021/12/09 06:52:19;;;;;;;6.30;0.50;;;;;;;4.05;100.00;95278.13;5134477;27;20484;-53
2021/12/09 06:54:48;;;;;;;0.40;0.40;;;;;;;4.04;100.00;95281.75;5134166;27;20460;-53
2021/12/09 06:57:18;;;;;;;0.40;0.30;;;;;;;3.55;100.00;95278.53;5134196;27;20561;-51
2021/12/09 06:59:46;;;;;;;2.53;1.80;;;;;;;3.74;100.00;95287.13;5134262;27;20461;-52
2021/12/09 07:02:14;;;;;;;0.77;0.77;;;;;;;4.10;100.00;95281.63;5134343;27;20787;-51
2021/12/09 07:04:43;;;;;;;0.90;0.90;;;;;;;3.76;100.00;95279.81;5134068;27;20431;-52
2021/12/09 07:07:11;;;;;;;2.43;2.33;;;;;;;3.55;100.00;95283.78;5134107;27;20459;-52
2021/12/09 07:09:40;;;;;;;1.57;0.73;;;;;;;3.58;100.00;95293.81;5134133;27;20816;-52
2021/12/09 07:12:09;;;;;;;1.23;1.23;;;;;;;3.14;100.00;95270.72;5134035;27;20501;-51
2021/12/09 07:14:39;;;;;;;0.87;0.87;;;;;;;2.80;100.00;95287.91;5134443;27;20461;-52
2021/12/09 07:17:07;;;;;;;0.70;0.70;;;;;;;2.68;100.00;95287.06;5134147;27;20466;-52
2021/12/09 07:19:36;;;;;;;2.93;2.83;;;;;;;3.11;100.00;95292.13;5133865;27;20645;-52
2021/12/09 07:22:05;;;;;;;1.03;0.67;;;;;;;3.03;100.00;95292.44;5133730;27;20419;-52
2021/12/09 07:24:34;;;;;;;1.23;1.23;;;;;;;2.89;100.00;95286.56;5134031;27;20422;-52
2021/12/09 07:27:02;;;;;;;0.90;0.90;;;;;;;3.19;100.00;95268.22;5133856;27;20475;-51
2021/12/09 07:29:31;;;;;;;0.60;0.60;;;;;;;3.14;100.00;95257.63;5133676;27;20431;-52
2021/12/09 07:32:01;;;;;;;1.90;1.90;;;;;;;3.92;100.00;95265.22;5133801;27;20505;-52
2021/12/09 07:34:29;;;;;;;1.70;1.43;;;;;;;4.34;100.00;95262.22;5133880;27;20458;-52
2021/12/09 07:37:02;;;;;;;0.40;0.40;;;;;;;4.43;100.00;95265.25;5133804;27;20592;-52
2021/12/09 07:39:31;;;;;;;0.77;0.77;;;;;;;4.33;100.00;95275.53;5133563;27;20517;-52
2021/12/09 07:42:00;;;;;;;0.40;0.40;;;;;;;4.64;100.00;95267.25;5133357;27;20461;-52
2021/12/09 07:44:29;;;;;;;0.30;0.20;;;;;;;4.61;100.00;95209.97;5132995;27;20466;-52
2021/12/09 07:46:58;;;;;;;3.53;2.13;;;;;;;4.46;100.00;95220.19;5133118;27;20469;-53
2021/12/09 07:49:28;;;;;;;0.83;0.83;;;;;;;3.77;100.00;95221.91;5133526;27;20450;-53
2021/12/09 07:51:57;;;;;;;2.83;2.73;;;;;;;4.52;100.00;95265.69;5133217;27;20454;-53
2021/12/09 07:54:25;;;;;;;0.50;0.40;;;;;;;4.80;100.00;95265.72;5133199;27;20502;-53
2021/12/09 07:56:54;;;;;;;1.30;1.20;;;;;;;4.66;100.00;95265.19;5133087;27;20514;-53
2021/12/09 07:59:22;;;;;;;0.97;0.97;;;;;;;4.74;100.00;95251.69;5133344;27;20462;-53
2021/12/09 08:01:51;;;;;;;1.60;1.60;;;;;;;4.92;100.00;95261.22;5132992;27;20475;-52
2021/12/09 08:04:20;;;;;;;4.53;1.80;;;;;;;5.25;100.00;95255.22;5133342;27;20439;-53
2021/12/09 08:06:49;;;;;;;2.13;2.10;;;;;;;4.81;100.00;95256.81;5133176;27;20446;-53
2021/12/09 08:09:18;;;;;;;0.40;0.40;;;;;;;4.93;100.00;95255.72;5132977;27;20431;-53
2021/12/09 08:11:47;;;;;;;12.63;1.50;;;;;;;4.73;100.00;95252.72;5132782;27;20505;-53
2021/12/09 08:14:16;;;;;;;2.80;2.60;;;;;;;4.37;100.00;95255.69;5133090;27;20501;-53
2021/12/09 08:16:44;;;;;;;3.30;3.10;;;;;;;3.99;100.00;95161.81;5132948;27;20435;-53
2021/12/09 08:19:14;;;;;;;1.73;1.73;;;;;;;4.74;100.00;95246.44;5132680;27;20564;-52
2021/12/09 08:21:43;;;;;;;6.10;1.73;;;;;;;4.52;100.00;95242.88;5133052;27;20441;-51
2021/12/09 08:24:12;;;;;;;0.97;0.97;;;;;;;4.36;100.00;95244.41;5133047;27;20435;-52
2021/12/09 08:26:41;;;;;;;2.97;1.07;;;;;;;3.68;100.00;95206.75;5132858;27;20458;-51
2021/12/09 08:29:09;;;;;;;0.30;0.20;;;;;;;3.59;100.00;95203.69;5132359;28;20434;-51
2021/12/09 08:31:38;;;;;;;8.53;0.60;;;;;;;3.65;100.00;95251.78;5132832;28;20567;-51
2021/12/09 08:34:16;;;;;;;0.60;0.60;;;;;;;4.27;100.00;95245.00;5132606;28;20418;-52
2021/12/09 08:36:53;;;;;;;1.03;1.03;;;;;;;3.62;100.00;95233.88;5132522;27;20942;-52
2021/12/09 08:39:23;;;;;;;0.60;0.60;;;;;;;4.13;100.00;95212.97;5132784;27;20474;-52
2021/12/09 08:41:52;;;;;;;0.30;0.30;;;;;;;4.45;100.00;95231.72;5132679;28;20454;-52
2021/12/09 08:44:20;;;;;;;0.30;0.20;;;;;;;4.73;100.00;95239.59;5134833;27;20478;-51
2021/12/09 08:46:49;;;;;;;0.50;0.50;;;;;;;4.86;100.00;95244.56;5136648;27;20441;-51
2021/12/09 08:49:18;;;;;;;2.10;2.00;;;;;;;4.36;100.00;95218.16;5136702;27;20460;-51
2021/12/09 08:51:47;;;;;;;1.40;1.40;;;;;;;4.75;100.00;95232.31;5136693;27;20513;-51
2021/12/09 08:54:17;;;;;;;0.90;0.90;;;;;;;4.80;100.00;95223.72;5136841;27;20430;-51
2021/12/09 08:56:50;;;;;;;1.13;0.93;;;;;;;5.33;100.00;95234.63;5136503;27;20426;-51
2021/12/09 08:59:20;;;;;;;2.30;1.37;;;;;;;6.09;100.00;95233.94;5136245;27;20478;-51
2021/12/09 09:02:06;;;;;;;0.87;0.87;;;;;;;6.51;100.00;95223.69;5136395;27;20922;-50
2021/12/09 09:04:35;;;;;;;0.63;0.50;;;;;;;6.47;100.00;95213.88;5136257;27;20434;-51
2021/12/09 09:07:04;;;;;;;0.30;0.20;;;;;;;6.60;100.00;95224.06;5135946;27;20419;-51
2021/12/09 09:09:34;;;;;;;3.03;0.90;;;;;;;6.05;100.00;95234.66;5136484;27;20491;-51
2021/12/09 09:12:08;;;;;;;0.40;0.30;;;;;;;5.83;100.00;95157.53;5136174;27;20450;-51
2021/12/09 09:14:36;;;;;;;3.23;2.17;;;;;;;5.85;100.00;95235.19;5136057;27;21067;-51
2021/12/09 09:17:05;;;;;;;0.40;0.40;;;;;;;5.63;100.00;95231.66;5136416;27;20436;-51
2021/12/09 09:19:34;;;;;;;0.63;0.60;;;;;;;6.61;100.00;95225.63;5136320;27;20856;-51
2021/12/09 09:22:03;;;;;;;0.60;0.60;;;;;;;5.55;100.00;95103.25;5136139;27;20514;-51
2021/12/09 09:24:31;;;;;;;0.83;0.83;;;;;;;6.23;100.00;95223.84;5135957;27;20426;-51
2021/12/09 09:27:00;;;;;;;1.37;0.53;;;;;;;6.57;100.00;95219.28;5136222;27;20485;-51
2021/12/09 09:29:32;;;;;;;0.73;0.73;;;;;;;6.70;100.00;95151.22;5135921;27;20479;-52
2021/12/09 09:32:01;;;;;;;3.40;3.30;;;;;;;7.15;100.00;95208.00;5136117;27;20458;-51
2021/12/09 09:34:29;;;;;;;1.67;1.60;;;;;;;7.76;100.00;95196.91;5135953;27;20475;-51
2021/12/09 09:36:58;;;;;;;2.27;2.17;;;;;;;7.49;99.75;95175.84;5135895;27;20498;-52
2021/12/09 09:39:29;;;;;;;2.63;2.57;;;;;;;7.92;93.89;95163.47;5135782;27;20469;-53
2021/12/09 09:42:06;;;;;;;1.13;1.13;;;;;;;8.40;92.74;95184.31;5135784;27;20419;-51
2021/12/09 09:44:47;;;;;;;1.00;1.00;;;;;;;8.70;88.96;95187.03;5135657;27;20501;-51
2021/12/09 09:47:17;;;;;;;2.73;2.63;;;;;;;8.68;84.62;95186.53;5135877;27;20426;-51
2021/12/09 09:49:46;;;;;;;0.93;0.93;;;;;;;9.21;80.79;95184.53;5135469;27;20426;-50
2021/12/09 09:52:14;;;;;;;2.00;1.77;;;;;;;9.59;78.14;95178.69;5135544;27;20935;-50
2021/12/09 09:54:43;;;;;;;5.60;4.77;;;;;;;9.82;74.05;95172.84;5135574;27;20480;-51
2021/12/09 09:57:12;;;;;;;1.30;1.20;;;;;;;10.50;70.85;95173.97;5135831;27;20795;-51
2021/12/09 09:59:42;;;;;;;0.50;0.50;;;;;;;11.15;69.94;95156.94;5135385;27;20470;-51
2021/12/09 10:02:12;;;;;;;4.17;3.30;;;;;;;10.79;65.04;95155.56;5135305;27;20462;-51
2021/12/09 10:04:45;;;;;;;2.37;2.27;;;;;;;10.47;65.16;95132.16;5135677;27;20441;-51
2021/12/09 10:07:15;;;;;;;2.70;1.23;;;;;;;11.10;64.31;95174.72;5135681;27;20430;-51
2021/12/09 10:09:44;;;;;;;5.17;2.80;;;;;;;10.53;64.68;95168.13;5135242;27;20418;-52
2021/12/09 10:12:14;;;;;;;3.10;2.57;;;;;;;10.13;66.85;95081.69;5134754;27;20418;-52
2021/12/09 10:14:47;;;;;;;5.87;2.73;;;;;;;11.18;64.36;95153.69;5135113;27;20438;-52
2021/12/09 10:17:17;;;;;;;1.30;1.23;;;;;;;10.43;67.64;95042.88;5135167;27;20509;-52
2021/12/09 10:20:10;;;;;;;0.50;0.50;;;;;;;11.43;63.79;95150.09;5134847;27;20480;-51
2021/12/09 10:22:38;;;;;;;1.00;1.00;;;;;;;10.79;65.33;95153.69;5134997;27;20460;-51
2021/12/09 10:25:19;;;;;;;0.87;0.87;;;;;;;10.35;68.29;95158.16;5134669;27;20833;-51
2021/12/09 10:27:57;;;;;;;4.60;2.27;;;;;;;9.84;69.22;95154.06;5134738;27;20516;-51
2021/12/09 10:30:29;;;;;;;1.33;1.23;;;;;;;9.18;75.80;95154.13;5134760;27;20879;-51
2021/12/09 10:33:01;;;;;;;1.43;1.13;;;;;;;10.30;76.17;95141.47;5134804;27;20514;-51
2021/12/09 10:35:30;;;;;;;2.23;2.13;;;;;;;11.18;72.08;95140.44;5134644;27;20451;-52
2021/12/09 10:38:03;;;;;;;4.20;1.03;;;;;;;11.39;70.49;95143.72;5134937;27;20843;-52
2021/12/09 10:40:32;;;;;;;0.73;0.73;;;;;;;11.84;67.46;95132.72;5134471;27;20496;-52
2021/12/09 10:43:04;;;;;;;1.80;1.70;;;;;;;12.18;62.88;95121.22;5134557;27;20434;-53
2021/12/09 10:45:36;;;;;;;1.80;1.37;;;;;;;11.04;64.83;95105.00;5134433;27;20493;-53
2021/12/09 10:48:21;;;;;;;1.20;1.20;;;;;;;11.57;65.81;95103.22;5134463;27;20933;-53
2021/12/09 10:51:07;;;;;;;2.13;2.03;;;;;;;11.75;65.76;95099.09;5134299;27;20483;-53
2021/12/09 10:53:47;;;;;;;0.40;0.30;;;;;;;12.24;63.23;95088.19;5134179;27;20430;-53
2021/12/09 10:56:26;;;;;;;1.73;1.63;;;;;;;11.41;65.54;95046.06;5134540;27;20431;-53
2021/12/09 10:58:54;;;;;;;0.77;0.70;;;;;;;11.95;65.51;95077.66;5134176;27;21016;-54
2021/12/09 11:01:26;;;;;;;1.20;1.20;;;;;;;12.50;62.12;95090.25;5134188;27;20477;-54
2021/12/09 11:03:58;;;;;;;1.17;1.07;;;;;;;13.09;56.60;95075.59;5134232;27;20425;-54
2021/12/09 11:06:32;;;;;;;1.60;1.50;;;;;;;12.77;55.27;95029.22;5133515;27;20415;-54
2021/12/09 11:09:02;;;;;;;0.77;0.77;;;;;;;11.83;63.23;95056.00;5133882;27;21039;-54
2021/12/09 11:11:33;;;;;;;4.60;2.77;;;;;;;11.63;61.03;95058.84;5133936;27;20472;-53
2021/12/09 11:14:11;;;;;;;8.50;1.83;;;;;;;11.26;60.64;95073.53;5133948;27;20435;-53
2021/12/09 11:16:42;;;;;;;0.60;0.60;;;;;;;11.85;61.12;95075.91;5134102;27;20848;-52
2021/12/09 11:19:15;;;;;;;0.80;0.80;;;;;;;11.91;57.50;95074.78;5133740;27;20977;-52
2021/12/09 11:21:51;;;;;;;1.43;1.33;;;;;;;12.12;57.73;95059.38;5133504;27;20929;-52
2021/12/09 11:24:21;;;;;;;2.57;2.47;;;;;;;11.89;57.68;95053.00;5134191;27;20839;-52
2021/12/09 11:26:55;;;;;;;1.13;0.63;;;;;;;11.79;59.82;95055.00;5133559;27;20483;-52
2021/12/09 11:29:27;;;;;;;3.50;1.47;;;;;;;11.60;57.79;95030.22;5133775;27;20483;-52
2021/12/09 11:32:05;;;;;;;0.67;0.67;;;;;;;11.63;59.42;95030.44;5133666;27;20422;-52
2021/12/09 11:34:39;;;;;;;6.83;2.90;;;;;;;11.15;60.40;95007.59;5133356;27;20422;-52
2021/12/09 11:37:21;;;;;;;2.87;2.30;;;;;;;11.84;63.22;95025.75;5133166;27;20449;-52
2021/12/09 11:39:51;;;;;;;2.43;1.97;;;;;;;10.93;68.82;95012.56;5133258;27;20465;-52
2021/12/09 11:42:27;;;;;;;1.67;1.57;;;;;;;11.65;67.62;95014.22;5133330;27;20439;-52
2021/12/09 11:45:07;;;;;;;1.57;1.47;;;;;;;11.74;65.62;95001.97;5132993;27;20485;-52
2021/12/09 11:47:38;;;;;;;1.20;1.10;;;;;;;11.30;69.38;94999.50;5133124;27;20464;-52
2021/12/09 11:50:11;;;;;;;2.60;2.50;;;;;;;11.55;67.50;94993.13;5133010;27;20435;-52
2021/12/09 11:52:40;;;;;;;2.37;2.17;;;;;;;11.08;65.79;94978.72;5133164;27;20461;-52